sensor_id;sensor_type;location;lat;lon;timestamp;pressure;altitude;pressure_sealevel;temperature;humidity
25610;BME280;13479;49.044;8.716;2022-12-10T05:00:51;97880.91;;;2.11;76.72
25610;BME280;13479;49.044;8.716;2022-12-10T05:03:17;97899.13;;;2.12;76.59
25610;BME280;13479;49.044;8.716;2022-12-10T05:05:42;97922.69;;;2.12;76.91
25610;BME280;13479;49.044;8.716;2022-12-10T05:08:07;97929.59;;;2.13;76.42
25610;BME280;13479;49.044;8.716;2022-12-10T05:10:34;97953.50;;;2.09;76.25
25610;BME280;13479;49.044;8.716;2022-12-10T05:12:59;97950.88;;;2.09;76.37
25610;BME280;13479;49.044;8.716;2022-12-10T05:15:25;97963.13;;;2.08;76.44
25610;BME280;13479;49.044;8.716;2022-12-10T05:17:50;97968.47;;;2.07;76.49
25610;BME280;13479;49.044;8.716;2022-12-10T05:20:15;97961.97;;;2.12;76.04
25610;BME280;13479;49.044;8.716;2022-12-10T05:22:40;97981.84;;;2.15;76.01
25610;BME280;13479;49.044;8.716;2022-12-10T05:25:24;97974.31;;;2.10;76.08
25610;BME280;13479;49.044;8.716;2022-12-10T05:27:49;97980.50;;;2.09;76.02
25610;BME280;13479;49.044;8.716;2022-12-10T05:30:15;97984.28;;;2.05;75.93
25610;BME280;13479;49.044;8.716;2022-12-10T05:32:40;97965.34;;;2.02;76.06
25610;BME280;13479;49.044;8.716;2022-12-10T05:35:05;97957.78;;;1.97;76.19
25610;BME280;13479;49.044;8.716;2022-12-10T05:37:31;97932.75;;;1.93;76.84
25610;BME280;13479;49.044;8.716;2022-12-10T05:39:56;97918.72;;;1.94;76.45
25610;BME280;13479;49.044;8.716;2022-12-10T05:42:22;97908.25;;;1.94;76.81
25610;BME280;13479;49.044;8.716;2022-12-10T05:44:47;97890.75;;;1.94;77.23
25610;BME280;13479;49.044;8.716;2022-12-10T05:47:12;97891.91;;;2.03;76.28
25610;BME280;13479;49.044;8.716;2022-12-10T05:49:37;97923.44;;;2.14;76.34
25610;BME280;13479;49.044;8.716;2022-12-10T05:52:02;97956.53;;;2.15;76.21
25610;BME280;13479;49.044;8.716;2022-12-10T05:54:28;97975.25;;;2.09;75.91
25610;BME280;13479;49.044;8.716;2022-12-10T05:56:53;97980.81;;;2.18;76.03
25610;BME280;13479;49.044;8.716;2022-12-10T05:59:19;97994.00;;;2.16;75.67
25610;BME280;13479;49.044;8.716;2022-12-10T06:01:45;97985.03;;;2.07;76.01
25610;BME280;13479;49.044;8.716;2022-12-10T06:04:11;97971.38;;;2.02;75.99
25610;BME280;13479;49.044;8.716;2022-12-10T06:06:38;97948.25;;;1.96;76.26
25610;BME280;13479;49.044;8.716;2022-12-10T06:09:04;97905.22;;;1.87;76.59
25610;BME280;13479;49.044;8.716;2022-12-10T06:11:30;97896.75;;;1.83;76.81
25610;BME280;13479;49.044;8.716;2022-12-10T06:13:57;97880.31;;;1.81;77.44
25610;BME280;13479;49.044;8.716;2022-12-10T06:16:25;97876.03;;;1.80;77.42
25610;BME280;13479;49.044;8.716;2022-12-10T06:18:51;97856.75;;;1.81;78.08
25610;BME280;13479;49.044;8.716;2022-12-10T06:21:17;97865.84;;;1.89;78.33
25610;BME280;13479;49.044;8.716;2022-12-10T06:23:43;97881.22;;;1.93;77.96
25610;BME280;13479;49.044;8.716;2022-12-10T06:26:18;97883.22;;;1.90;77.92
25610;BME280;13479;49.044;8.716;2022-12-10T06:28:45;97887.09;;;1.84;78.95
25610;BME280;13479;49.044;8.716;2022-12-10T06:31:11;97873.94;;;1.85;78.21
25610;BME280;13479;49.044;8.716;2022-12-10T06:33:36;97881.56;;;1.89;78.27
25610;BME280;13479;49.044;8.716;2022-12-10T06:36:06;97888.06;;;1.96;78.28
25610;BME280;13479;49.044;8.716;2022-12-10T06:38:33;97912.34;;;1.85;78.53
25610;BME280;13479;49.044;8.716;2022-12-10T06:40:59;97898.72;;;1.93;78.43
25610;BME280;13479;49.044;8.716;2022-12-10T06:43:24;97912.88;;;1.90;78.33
25610;BME280;13479;49.044;8.716;2022-12-10T06:45:49;97922.81;;;1.85;77.98
25610;BME280;13479;49.044;8.716;2022-12-10T06:48:15;97926.97;;;1.88;78.09
25610;BME280;13479;49.044;8.716;2022-12-10T06:50:40;97932.97;;;1.90;78.24
25610;BME280;13479;49.044;8.716;2022-12-10T06:53:06;97950.78;;;1.84;77.74
25610;BME280;13479;49.044;8.716;2022-12-10T06:55:31;97958.38;;;1.88;78.23
25610;BME280;13479;49.044;8.716;2022-12-10T06:57:57;97942.50;;;1.78;78.28
25610;BME280;13479;49.044;8.716;2022-12-10T07:00:22;97941.44;;;1.80;78.80
25610;BME280;13479;49.044;8.716;2022-12-10T07:02:49;97955.69;;;1.89;78.18
25610;BME280;13479;49.044;8.716;2022-12-10T07:05:14;97971.34;;;1.76;78.14
25610;BME280;13479;49.044;8.716;2022-12-10T07:07:40;97960.81;;;1.78;79.05
25610;BME280;13479;49.044;8.716;2022-12-10T07:10:06;97952.41;;;1.73;78.53
25610;BME280;13479;49.044;8.716;2022-12-10T07:12:31;97945.94;;;1.78;78.79
25610;BME280;13479;49.044;8.716;2022-12-10T07:14:57;97950.13;;;1.81;78.92
25610;BME280;13479;49.044;8.716;2022-12-10T07:17:22;97960.31;;;1.85;78.88
25610;BME280;13479;49.044;8.716;2022-12-10T07:19:47;97968.56;;;1.92;79.06
25610;BME280;13479;49.044;8.716;2022-12-10T07:22:12;97979.03;;;1.92;78.66
25610;BME280;13479;49.044;8.716;2022-12-10T07:24:38;97990.84;;;1.98;78.48
25610;BME280;13479;49.044;8.716;2022-12-10T07:27:07;98011.59;;;2.01;77.94
25610;BME280;13479;49.044;8.716;2022-12-10T07:29:32;98027.09;;;2.04;78.61
25610;BME280;13479;49.044;8.716;2022-12-10T07:31:58;98050.34;;;1.96;77.91
25610;BME280;13479;49.044;8.716;2022-12-10T07:34:23;98058.72;;;2.01;77.66
25610;BME280;13479;49.044;8.716;2022-12-10T07:36:48;98071.91;;;1.99;78.13
25610;BME280;13479;49.044;8.716;2022-12-10T07:39:14;98080.72;;;1.98;77.75
25610;BME280;13479;49.044;8.716;2022-12-10T07:41:49;98077.97;;;2.00;78.07
25610;BME280;13479;49.044;8.716;2022-12-10T07:44:19;98063.03;;;2.02;77.76
25610;BME280;13479;49.044;8.716;2022-12-10T07:46:47;98073.19;;;2.07;77.24
25610;BME280;13479;49.044;8.716;2022-12-10T07:49:12;98090.56;;;2.08;77.15
25610;BME280;13479;49.044;8.716;2022-12-10T07:51:37;98108.78;;;2.09;77.04
25610;BME280;13479;49.044;8.716;2022-12-10T07:54:03;98106.41;;;2.06;76.82
25610;BME280;13479;49.044;8.716;2022-12-10T07:56:28;98090.69;;;2.06;77.41
25610;BME280;13479;49.044;8.716;2022-12-10T07:58:53;98095.19;;;2.04;77.61
25610;BME280;13479;49.044;8.716;2022-12-10T08:01:25;98091.44;;;2.08;77.13
25610;BME280;13479;49.044;8.716;2022-12-10T08:03:51;98090.38;;;2.11;77.25
25610;BME280;13479;49.044;8.716;2022-12-10T08:06:19;98100.63;;;2.14;77.30
25610;BME280;13479;49.044;8.716;2022-12-10T08:08:45;98109.84;;;2.20;77.08
25610;BME280;13479;49.044;8.716;2022-12-10T08:11:12;98115.31;;;2.16;77.25
25610;BME280;13479;49.044;8.716;2022-12-10T08:13:38;98118.44;;;2.22;77.60
25610;BME280;13479;49.044;8.716;2022-12-10T08:16:10;98116.38;;;2.27;76.90
25610;BME280;13479;49.044;8.716;2022-12-10T08:18:36;98097.72;;;2.31;77.42
25610;BME280;13479;49.044;8.716;2022-12-10T08:21:11;98116.19;;;2.43;76.69
25610;BME280;13479;49.044;8.716;2022-12-10T08:23:36;98149.94;;;2.47;76.48
25610;BME280;13479;49.044;8.716;2022-12-10T08:26:04;98164.66;;;2.63;76.23
25610;BME280;13479;49.044;8.716;2022-12-10T08:28:29;98181.41;;;2.73;76.05
25610;BME280;13479;49.044;8.716;2022-12-10T08:30:54;98192.97;;;2.84;75.35
25610;BME280;13479;49.044;8.716;2022-12-10T08:33:20;98208.88;;;2.93;74.94
25610;BME280;13479;49.044;8.716;2022-12-10T08:35:45;98210.69;;;2.93;74.51
25610;BME280;13479;49.044;8.716;2022-12-10T08:38:10;98196.75;;;3.05;74.39
25610;BME280;13479;49.044;8.716;2022-12-10T08:40:39;98202.41;;;3.12;73.56
25610;BME280;13479;49.044;8.716;2022-12-10T08:43:05;98214.03;;;3.21;73.59
25610;BME280;13479;49.044;8.716;2022-12-10T08:45:30;98235.44;;;3.28;72.87
25610;BME280;13479;49.044;8.716;2022-12-10T08:47:56;98254.03;;;3.37;71.68
25610;BME280;13479;49.044;8.716;2022-12-10T08:50:21;98251.06;;;3.42;71.24
25610;BME280;13479;49.044;8.716;2022-12-10T08:52:46;98233.44;;;3.44;71.70
25610;BME280;13479;49.044;8.716;2022-12-10T08:55:11;98191.66;;;3.41;71.81
25610;BME280;13479;49.044;8.716;2022-12-10T08:57:37;98152.72;;;3.48;72.18
25610;BME280;13479;49.044;8.716;2022-12-10T09:00:03;98141.28;;;3.49;71.91
25610;BME280;13479;49.044;8.716;2022-12-10T09:02:28;98134.13;;;3.51;71.89
25610;BME280;13479;49.044;8.716;2022-12-10T09:04:54;98108.91;;;3.61;72.00
25610;BME280;13479;49.044;8.716;2022-12-10T09:07:19;98103.44;;;3.64;72.51
25610;BME280;13479;49.044;8.716;2022-12-10T09:09:44;98111.13;;;3.79;72.09
25610;BME280;13479;49.044;8.716;2022-12-10T09:12:09;98152.25;;;3.91;71.72
25610;BME280;13479;49.044;8.716;2022-12-10T09:14:35;98201.19;;;3.92;70.67
25610;BME280;13479;49.044;8.716;2022-12-10T09:17:03;98205.56;;;4.05;70.62
25610;BME280;13479;49.044;8.716;2022-12-10T09:19:28;98211.56;;;4.07;69.55
25610;BME280;13479;49.044;8.716;2022-12-10T09:21:53;98229.47;;;4.13;69.65
25610;BME280;13479;49.044;8.716;2022-12-10T09:24:19;98219.63;;;4.16;68.97
25610;BME280;13479;49.044;8.716;2022-12-10T09:26:44;98212.28;;;4.09;68.48
25610;BME280;13479;49.044;8.716;2022-12-10T09:29:09;98220.38;;;4.06;68.19
25610;BME280;13479;49.044;8.716;2022-12-10T09:31:34;98203.28;;;4.00;67.69
25610;BME280;13479;49.044;8.716;2022-12-10T09:34:00;98182.75;;;3.81;68.51
25610;BME280;13479;49.044;8.716;2022-12-10T09:36:25;98140.34;;;3.74;68.84
25610;BME280;13479;49.044;8.716;2022-12-10T09:38:50;98144.97;;;3.70;68.25
25610;BME280;13479;49.044;8.716;2022-12-10T09:41:32;98114.16;;;3.61;68.39
25610;BME280;13479;49.044;8.716;2022-12-10T09:44:21;98079.44;;;3.58;69.28
25610;BME280;13479;49.044;8.716;2022-12-10T09:46:53;98079.31;;;3.59;68.44
25610;BME280;13479;49.044;8.716;2022-12-10T09:52:11;98119.94;;;3.53;68.70
25610;BME280;13479;49.044;8.716;2022-12-10T09:57:05;98131.00;;;3.46;68.31
25610;BME280;13479;49.044;8.716;2022-12-10T09:59:36;98109.78;;;3.49;68.49
25610;BME280;13479;49.044;8.716;2022-12-10T10:04:45;98092.22;;;3.62;68.87
25610;BME280;13479;49.044;8.716;2022-12-10T10:07:20;98084.59;;;3.70;68.63
25610;BME280;13479;49.044;8.716;2022-12-10T10:09:46;98085.72;;;3.79;68.66
25610;BME280;13479;49.044;8.716;2022-12-10T10:12:13;98160.38;;;3.88;67.71
25610;BME280;13479;49.044;8.716;2022-12-10T10:14:43;98189.69;;;3.82;67.68
25610;BME280;13479;49.044;8.716;2022-12-10T10:17:14;98182.31;;;3.87;67.57
25610;BME280;13479;49.044;8.716;2022-12-10T10:19:42;98156.47;;;3.94;67.56
25610;BME280;13479;49.044;8.716;2022-12-10T10:22:10;98170.69;;;4.02;67.58
25610;BME280;13479;49.044;8.716;2022-12-10T10:24:42;98193.56;;;4.13;66.64
25610;BME280;13479;49.044;8.716;2022-12-10T10:27:19;98171.00;;;4.11;66.89
25610;BME280;13479;49.044;8.716;2022-12-10T10:29:48;98150.69;;;4.13;66.62
25610;BME280;13479;49.044;8.716;2022-12-10T10:32:16;98141.63;;;4.17;66.48
25610;BME280;13479;49.044;8.716;2022-12-10T10:34:42;98141.50;;;4.18;66.64
25610;BME280;13479;49.044;8.716;2022-12-10T10:37:16;98126.03;;;4.27;66.14
25610;BME280;13479;49.044;8.716;2022-12-10T10:39:46;98168.91;;;4.27;65.01
25610;BME280;13479;49.044;8.716;2022-12-10T10:44:48;98153.13;;;4.27;64.87
25610;BME280;13479;49.044;8.716;2022-12-10T10:47:26;98122.22;;;4.31;65.23
25610;BME280;13479;49.044;8.716;2022-12-10T10:49:52;98103.47;;;4.36;65.24
25610;BME280;13479;49.044;8.716;2022-12-10T10:52:18;98129.03;;;4.45;65.21
25610;BME280;13479;49.044;8.716;2022-12-10T10:54:44;98140.19;;;4.48;64.75
25610;BME280;13479;49.044;8.716;2022-12-10T10:57:19;98153.09;;;4.52;64.74
25610;BME280;13479;49.044;8.716;2022-12-10T10:59:46;98148.47;;;4.55;63.80
25610;BME280;13479;49.044;8.716;2022-12-10T11:02:23;98142.47;;;4.53;64.25
25610;BME280;13479;49.044;8.716;2022-12-10T11:04:52;98120.72;;;4.51;63.92
25610;BME280;13479;49.044;8.716;2022-12-10T11:07:39;98138.88;;;4.54;63.92
25610;BME280;13479;49.044;8.716;2022-12-10T11:12:44;98145.84;;;4.67;63.20
25610;BME280;13479;49.044;8.716;2022-12-10T11:17:52;98115.00;;;4.80;62.69
25610;BME280;13479;49.044;8.716;2022-12-10T11:20:33;98117.53;;;4.82;63.24
25610;BME280;13479;49.044;8.716;2022-12-10T11:23:08;98111.56;;;4.79;63.12
25610;BME280;13479;49.044;8.716;2022-12-10T11:25:55;98092.06;;;4.82;62.99
25610;BME280;13479;49.044;8.716;2022-12-10T11:42:29;98124.00;;;5.12;61.41
25610;BME280;13479;49.044;8.716;2022-12-10T11:45:06;98115.66;;;5.18;61.36
25610;BME280;13479;49.044;8.716;2022-12-10T11:53:04;98105.34;;;5.03;61.53
25610;BME280;13479;49.044;8.716;2022-12-10T11:55:53;98102.97;;;5.00;61.46
25610;BME280;13479;49.044;8.716;2022-12-10T11:58:44;98101.19;;;5.01;61.11
25610;BME280;13479;49.044;8.716;2022-12-10T12:01:36;98105.81;;;4.97;61.41
25610;BME280;13479;49.044;8.716;2022-12-10T12:04:30;98114.44;;;4.88;60.88
25610;BME280;13479;49.044;8.716;2022-12-10T12:15:23;98012.22;;;4.60;62.47
25610;BME280;13479;49.044;8.716;2022-12-10T12:17:59;97990.97;;;4.63;62.14
25610;BME280;13479;49.044;8.716;2022-12-10T12:23:08;97980.69;;;4.60;62.01
25610;BME280;13479;49.044;8.716;2022-12-10T12:25:47;98003.38;;;4.61;62.27
25610;BME280;13479;49.044;8.716;2022-12-10T12:28:25;98015.59;;;4.62;61.98
25610;BME280;13479;49.044;8.716;2022-12-10T12:31:17;98067.66;;;4.57;61.64
25610;BME280;13479;49.044;8.716;2022-12-10T12:33:56;98046.41;;;4.49;61.94
25610;BME280;13479;49.044;8.716;2022-12-10T12:36:27;97995.72;;;4.58;62.99
25610;BME280;13479;49.044;8.716;2022-12-10T12:39:00;97992.88;;;4.61;62.40
25610;BME280;13479;49.044;8.716;2022-12-10T12:44:11;98000.63;;;4.63;62.36
25610;BME280;13479;49.044;8.716;2022-12-10T12:46:43;98026.81;;;4.64;61.73
25610;BME280;13479;49.044;8.716;2022-12-10T12:49:10;98028.22;;;4.57;62.07
25610;BME280;13479;49.044;8.716;2022-12-10T12:51:43;98068.16;;;4.62;61.13
25610;BME280;13479;49.044;8.716;2022-12-10T12:54:11;98090.84;;;4.52;61.62
25610;BME280;13479;49.044;8.716;2022-12-10T12:57:03;98078.50;;;4.41;61.73
25610;BME280;13479;49.044;8.716;2022-12-10T12:59:52;98092.94;;;4.36;61.72
25610;BME280;13479;49.044;8.716;2022-12-10T13:02:31;98109.19;;;4.29;61.40
25610;BME280;13479;49.044;8.716;2022-12-10T13:05:03;98101.28;;;4.18;62.30
25610;BME280;13479;49.044;8.716;2022-12-10T13:07:34;98073.81;;;4.11;62.40
25610;BME280;13479;49.044;8.716;2022-12-10T13:13:05;98031.78;;;4.11;62.56
25610;BME280;13479;49.044;8.716;2022-12-10T13:15:37;98051.56;;;4.04;62.04
25610;BME280;13479;49.044;8.716;2022-12-10T13:20:49;98027.75;;;3.82;62.75
25610;BME280;13479;49.044;8.716;2022-12-10T13:23:48;97995.63;;;3.79;62.99
25610;BME280;13479;49.044;8.716;2022-12-10T13:26:27;97985.03;;;3.80;62.60
25610;BME280;13479;49.044;8.716;2022-12-10T13:28:54;98006.38;;;3.76;63.15
25610;BME280;13479;49.044;8.716;2022-12-10T13:31:33;98005.38;;;3.65;63.11
25610;BME280;13479;49.044;8.716;2022-12-10T13:41:30;97908.47;;;3.51;64.15
25610;BME280;13479;49.044;8.716;2022-12-10T13:49:52;97965.28;;;3.63;63.97
25610;BME280;13479;49.044;8.716;2022-12-10T13:52:25;97979.22;;;3.64;63.70
25610;BME280;13479;49.044;8.716;2022-12-10T14:00:15;97979.25;;;3.75;64.01
25610;BME280;13479;49.044;8.716;2022-12-10T14:02:53;97970.09;;;3.81;63.82
25610;BME280;13479;49.044;8.716;2022-12-10T14:05:39;97972.28;;;3.87;64.24
25610;BME280;13479;49.044;8.716;2022-12-10T14:08:13;97984.19;;;3.91;64.64
25610;BME280;13479;49.044;8.716;2022-12-10T14:10:41;97993.41;;;3.97;64.09
25610;BME280;13479;49.044;8.716;2022-12-10T14:13:12;98029.72;;;4.03;63.42
25610;BME280;13479;49.044;8.716;2022-12-10T14:15:41;98045.59;;;4.13;63.70
25610;BME280;13479;49.044;8.716;2022-12-10T14:18:13;98094.13;;;4.20;62.68
25610;BME280;13479;49.044;8.716;2022-12-10T14:20:44;98144.13;;;4.18;62.52
25610;BME280;13479;49.044;8.716;2022-12-10T14:23:43;98194.16;;;4.17;62.00
25610;BME280;13479;49.044;8.716;2022-12-10T14:26:21;98203.47;;;4.10;62.74
25610;BME280;13479;49.044;8.716;2022-12-10T14:28:50;98199.88;;;4.11;62.20
25610;BME280;13479;49.044;8.716;2022-12-10T14:31:21;98209.94;;;4.17;61.72
25610;BME280;13479;49.044;8.716;2022-12-10T14:33:50;98229.28;;;4.16;62.08
25610;BME280;13479;49.044;8.716;2022-12-10T14:36:32;98217.28;;;4.12;62.32
25610;BME280;13479;49.044;8.716;2022-12-10T14:38:59;98212.28;;;4.09;62.67
25610;BME280;13479;49.044;8.716;2022-12-10T14:41:27;98214.91;;;4.09;61.82
25610;BME280;13479;49.044;8.716;2022-12-10T14:43:54;98235.84;;;3.97;61.61
25610;BME280;13479;49.044;8.716;2022-12-10T14:46:23;98234.59;;;3.90;61.94
25610;BME280;13479;49.044;8.716;2022-12-10T14:48:50;98241.47;;;3.80;62.54
25610;BME280;13479;49.044;8.716;2022-12-10T14:51:19;98212.94;;;3.62;62.57
25610;BME280;13479;49.044;8.716;2022-12-10T14:53:46;98169.19;;;3.50;62.92
25610;BME280;13479;49.044;8.716;2022-12-10T14:56:37;98119.66;;;3.45;64.12
25610;BME280;13479;49.044;8.716;2022-12-10T15:01:34;98042.16;;;3.28;64.06
25610;BME280;13479;49.044;8.716;2022-12-10T15:04:03;98009.56;;;3.19;64.75
25610;BME280;13479;49.044;8.716;2022-12-10T15:06:33;97991.88;;;3.34;64.06
25610;BME280;13479;49.044;8.716;2022-12-10T15:08:59;98005.53;;;3.27;64.12
25610;BME280;13479;49.044;8.716;2022-12-10T15:11:26;98007.06;;;3.18;64.65
25610;BME280;13479;49.044;8.716;2022-12-10T15:13:56;98018.97;;;3.22;64.44
25610;BME280;13479;49.044;8.716;2022-12-10T15:16:41;98010.97;;;3.12;64.96
25610;BME280;13479;49.044;8.716;2022-12-10T15:19:18;97987.78;;;3.06;65.13
25610;BME280;13479;49.044;8.716;2022-12-10T15:21:45;97965.97;;;3.05;65.33
25610;BME280;13479;49.044;8.716;2022-12-10T15:26:49;97975.84;;;3.02;65.08
25610;BME280;13479;49.044;8.716;2022-12-10T15:31:46;98009.09;;;3.01;65.35
25610;BME280;13479;49.044;8.716;2022-12-10T15:34:13;98039.19;;;3.08;65.07
25610;BME280;13479;49.044;8.716;2022-12-10T15:36:49;98058.81;;;3.03;64.22
25610;BME280;13479;49.044;8.716;2022-12-10T15:39:16;98048.88;;;2.95;64.85
25610;BME280;13479;49.044;8.716;2022-12-10T15:41:53;98024.94;;;3.00;65.16
25610;BME280;13479;49.044;8.716;2022-12-10T15:44:39;97997.88;;;2.99;65.72
25610;BME280;13479;49.044;8.716;2022-12-10T15:47:18;97996.09;;;3.00;65.53
25610;BME280;13479;49.044;8.716;2022-12-10T15:49:44;97992.19;;;3.05;65.59
25610;BME280;13479;49.044;8.716;2022-12-10T15:52:12;98007.94;;;3.05;65.50
25610;BME280;13479;49.044;8.716;2022-12-10T15:54:40;98007.72;;;3.08;65.84
25610;BME280;13479;49.044;8.716;2022-12-10T15:57:23;98023.13;;;3.13;65.21
25610;BME280;13479;49.044;8.716;2022-12-10T15:59:50;98033.00;;;3.09;65.39
25610;BME280;13479;49.044;8.716;2022-12-10T16:02:51;98060.56;;;3.15;65.23
25610;BME280;13479;49.044;8.716;2022-12-10T16:07:51;98127.72;;;3.18;64.44
25610;BME280;13479;49.044;8.716;2022-12-10T16:10:19;98140.28;;;3.13;64.98
25610;BME280;13479;49.044;8.716;2022-12-10T16:12:49;98111.88;;;3.06;64.94
25610;BME280;13479;49.044;8.716;2022-12-10T16:15:20;98068.16;;;2.94;65.63
25610;BME280;13479;49.044;8.716;2022-12-10T16:17:47;98021.91;;;2.93;66.41
25610;BME280;13479;49.044;8.716;2022-12-10T16:20:22;97984.38;;;2.92;66.39
25610;BME280;13479;49.044;8.716;2022-12-10T16:22:48;97980.63;;;2.84;67.14
25610;BME280;13479;49.044;8.716;2022-12-10T16:25:14;97994.16;;;2.77;67.19
25610;BME280;13479;49.044;8.716;2022-12-10T16:27:40;97985.06;;;2.70;67.14
25610;BME280;13479;49.044;8.716;2022-12-10T16:30:17;97995.13;;;2.63;67.55
25610;BME280;13479;49.044;8.716;2022-12-10T16:32:42;98010.03;;;2.63;67.63
25610;BME280;13479;49.044;8.716;2022-12-10T16:35:08;98018.00;;;2.49;68.24
25610;BME280;13479;49.044;8.716;2022-12-10T16:37:33;98018.31;;;2.44;68.03
25610;BME280;13479;49.044;8.716;2022-12-10T16:39:59;98020.81;;;2.45;67.99
25610;BME280;13479;49.044;8.716;2022-12-10T16:42:24;98031.41;;;2.57;67.98
25610;BME280;13479;49.044;8.716;2022-12-10T16:44:50;98038.53;;;2.55;68.50
25610;BME280;13479;49.044;8.716;2022-12-10T16:47:15;98045.13;;;2.47;68.87
25610;BME280;13479;49.044;8.716;2022-12-10T16:49:40;98043.66;;;2.43;68.96
25610;BME280;13479;49.044;8.716;2022-12-10T16:52:05;98038.22;;;2.46;69.38
25610;BME280;13479;49.044;8.716;2022-12-10T16:54:31;98055.63;;;2.47;68.80
25610;BME280;13479;49.044;8.716;2022-12-10T16:56:56;98072.28;;;2.46;68.45
25610;BME280;13479;49.044;8.716;2022-12-10T16:59:22;98083.50;;;2.49;68.87
25610;BME280;13479;49.044;8.716;2022-12-10T17:01:47;98074.91;;;2.46;69.03
25610;BME280;13479;49.044;8.716;2022-12-10T17:04:12;98078.88;;;2.39;68.95
25610;BME280;13479;49.044;8.716;2022-12-10T17:06:37;98065.88;;;2.38;69.07
25610;BME280;13479;49.044;8.716;2022-12-10T17:09:04;98076.56;;;2.22;69.16
25610;BME280;13479;49.044;8.716;2022-12-10T17:11:41;98067.13;;;2.19;69.29
25610;BME280;13479;49.044;8.716;2022-12-10T17:14:31;98066.31;;;2.19;69.51
25610;BME280;13479;49.044;8.716;2022-12-10T17:16:59;98062.09;;;2.16;69.89
25610;BME280;13479;49.044;8.716;2022-12-10T17:19:33;98066.19;;;2.20;69.66
25610;BME280;13479;49.044;8.716;2022-12-10T17:21:59;98080.84;;;2.10;69.54
25610;BME280;13479;49.044;8.716;2022-12-10T17:24:24;98075.59;;;2.10;70.38
25610;BME280;13479;49.044;8.716;2022-12-10T17:26:50;98083.22;;;2.00;70.04
25610;BME280;13479;49.044;8.716;2022-12-10T17:29:24;98088.69;;;1.97;69.94
25610;BME280;13479;49.044;8.716;2022-12-10T17:31:50;98094.91;;;1.81;70.54
25610;BME280;13479;49.044;8.716;2022-12-10T17:34:15;98098.00;;;1.74;70.98
25610;BME280;13479;49.044;8.716;2022-12-10T17:36:42;98094.34;;;1.76;70.72
25610;BME280;13479;49.044;8.716;2022-12-10T17:39:13;98093.81;;;1.71;70.67
25610;BME280;13479;49.044;8.716;2022-12-10T17:41:38;98093.81;;;1.71;71.07
25610;BME280;13479;49.044;8.716;2022-12-10T17:44:04;98109.09;;;1.64;71.02
25610;BME280;13479;49.044;8.716;2022-12-10T17:46:29;98108.63;;;1.58;71.40
25610;BME280;13479;49.044;8.716;2022-12-10T17:48:54;98110.78;;;1.51;71.81
25610;BME280;13479;49.044;8.716;2022-12-10T17:51:19;98107.53;;;1.47;72.24
25610;BME280;13479;49.044;8.716;2022-12-10T17:53:45;98120.91;;;1.43;72.48
25610;BME280;13479;49.044;8.716;2022-12-10T17:56:14;98122.66;;;1.42;72.12
25610;BME280;13479;49.044;8.716;2022-12-10T17:58:40;98136.31;;;1.33;72.31
25610;BME280;13479;49.044;8.716;2022-12-10T18:01:05;98137.66;;;1.26;72.10
25610;BME280;13479;49.044;8.716;2022-12-10T18:03:31;98138.59;;;1.25;72.77
25610;BME280;13479;49.044;8.716;2022-12-10T18:05:57;98153.63;;;1.21;73.07
25610;BME280;13479;49.044;8.716;2022-12-10T18:08:22;98161.00;;;1.14;73.11
25610;BME280;13479;49.044;8.716;2022-12-10T18:10:49;98171.47;;;1.00;73.44
25610;BME280;13479;49.044;8.716;2022-12-10T18:13:15;98172.66;;;0.94;73.50
25610;BME280;13479;49.044;8.716;2022-12-10T18:15:40;98189.38;;;0.91;73.19
25610;BME280;13479;49.044;8.716;2022-12-10T18:18:06;98202.34;;;0.79;73.08
25610;BME280;13479;49.044;8.716;2022-12-10T18:20:37;98212.44;;;0.54;73.27
25610;BME280;13479;49.044;8.716;2022-12-10T18:23:06;98189.44;;;0.30;73.09
25610;BME280;13479;49.044;8.716;2022-12-10T18:25:31;98175.59;;;0.14;73.59
25610;BME280;13479;49.044;8.716;2022-12-10T18:28:01;98164.56;;;0.09;74.55
25610;BME280;13479;49.044;8.716;2022-12-10T18:30:28;98165.59;;;-0.10;74.90
25610;BME280;13479;49.044;8.716;2022-12-10T18:32:53;98180.25;;;-0.23;74.87
25610;BME280;13479;49.044;8.716;2022-12-10T18:35:19;98187.84;;;-0.35;75.48
25610;BME280;13479;49.044;8.716;2022-12-10T18:37:44;98211.56;;;-0.39;75.23
25610;BME280;13479;49.044;8.716;2022-12-10T18:40:20;98226.84;;;-0.49;75.56
25610;BME280;13479;49.044;8.716;2022-12-10T18:42:46;98232.91;;;-0.65;75.91
25610;BME280;13479;49.044;8.716;2022-12-10T18:45:11;98240.97;;;-0.69;76.37
25610;BME280;13479;49.044;8.716;2022-12-10T18:47:37;98245.47;;;-0.73;76.42
25610;BME280;13479;49.044;8.716;2022-12-10T18:50:03;98267.66;;;-0.82;76.83
25610;BME280;13479;49.044;8.716;2022-12-10T18:52:28;98283.31;;;-0.82;76.80
25610;BME280;13479;49.044;8.716;2022-12-10T18:54:54;98303.53;;;-0.69;76.92
25610;BME280;13479;49.044;8.716;2022-12-10T18:57:19;98312.19;;;-0.69;77.27
25610;BME280;13479;49.044;8.716;2022-12-10T18:59:44;98329.59;;;-0.69;76.97
25610;BME280;13479;49.044;8.716;2022-12-10T19:02:10;98337.81;;;-0.77;76.88
25610;BME280;13479;49.044;8.716;2022-12-10T19:04:36;98342.41;;;-0.82;76.85
25610;BME280;13479;49.044;8.716;2022-12-10T19:07:01;98346.75;;;-1.00;77.05
25610;BME280;13479;49.044;8.716;2022-12-10T19:09:27;98342.25;;;-1.14;77.67
25610;BME280;13479;49.044;8.716;2022-12-10T19:11:52;98352.66;;;-1.32;77.44
25610;BME280;13479;49.044;8.716;2022-12-10T19:14:19;98335.91;;;-1.45;77.79
25610;BME280;13479;49.044;8.716;2022-12-10T19:16:45;98329.16;;;-1.49;78.23
25610;BME280;13479;49.044;8.716;2022-12-10T19:19:11;98338.75;;;-1.50;78.67
25610;BME280;13479;49.044;8.716;2022-12-10T19:21:37;98346.84;;;-1.56;78.85
25610;BME280;13479;49.044;8.716;2022-12-10T19:24:02;98372.59;;;-1.50;78.77
25610;BME280;13479;49.044;8.716;2022-12-10T19:26:31;98379.41;;;-1.47;79.09
25610;BME280;13479;49.044;8.716;2022-12-10T19:28:57;98388.56;;;-1.38;79.24
25610;BME280;13479;49.044;8.716;2022-12-10T19:31:23;98399.78;;;-1.38;79.42
25610;BME280;13479;49.044;8.716;2022-12-10T19:33:48;98413.00;;;-1.23;79.80
25610;BME280;13479;49.044;8.716;2022-12-10T19:36:20;98411.31;;;-1.25;79.65
25610;BME280;13479;49.044;8.716;2022-12-10T19:38:46;98426.41;;;-1.31;80.10
25610;BME280;13479;49.044;8.716;2022-12-10T19:41:12;98432.47;;;-1.31;80.06
25610;BME280;13479;49.044;8.716;2022-12-10T19:43:38;98426.94;;;-1.25;80.37